createdAt,value
2018-05-18T00:01:37.294Z,101115.02
2018-05-18T00:04:03.110Z,101106.25
2018-05-18T00:06:29.520Z,101102.55
2018-05-18T00:08:55.349Z,101100.98
2018-05-18T00:11:21.158Z,101101.30
2018-05-18T00:13:46.949Z,101094.89
2018-05-18T00:16:12.718Z,101095.09
2018-05-18T00:18:38.568Z,101088.09
2018-05-18T00:21:04.355Z,101094.58
2018-05-18T00:23:30.183Z,101092.34
2018-05-18T00:25:56.720Z,101101.06
2018-05-18T00:28:22.689Z,101102.02
2018-05-18T00:30:48.487Z,101106.18
2018-05-18T00:33:14.304Z,101105.31
2018-05-18T00:35:40.056Z,101107.20
2018-05-18T00:38:05.861Z,101103.07
2018-05-18T00:40:31.637Z,101101.54
2018-05-18T00:42:57.430Z,101111.80
2018-05-18T00:45:23.228Z,101110.70
2018-05-18T00:47:49.288Z,101115.09
2018-05-18T00:50:15.085Z,101112.78
2018-05-18T00:52:40.880Z,101105.78
2018-05-18T00:55:19.001Z,101108.81
2018-05-18T00:57:44.810Z,101108.93
2018-05-18T01:00:10.614Z,101105.51
2018-05-18T01:02:36.396Z,101113.45
2018-05-18T01:05:02.223Z,101115.19
2018-05-18T01:07:28.010Z,101114.55
2018-05-18T01:09:53.801Z,101122.45
2018-05-18T01:12:19.605Z,101124.53
2018-05-18T01:14:45.378Z,101111.64
2018-05-18T01:17:11.145Z,101114.86
2018-05-18T01:19:36.971Z,101110.02
2018-05-18T01:22:02.763Z,101108.37
2018-05-18T01:24:28.549Z,101109.31
2018-05-18T01:26:54.341Z,101110.53
2018-05-18T01:29:20.109Z,101116.82
2018-05-18T01:31:45.902Z,101114.11
2018-05-18T01:34:11.920Z,101116.42
2018-05-18T01:36:37.719Z,101117.09
2018-05-18T01:39:04.405Z,101124.52
2018-05-18T01:41:30.396Z,101112.38
2018-05-18T01:43:56.186Z,101120.62
2018-05-18T01:46:21.965Z,101115.72
2018-05-18T01:48:47.782Z,101112.39
2018-05-18T01:51:13.563Z,101116.33
2018-05-18T01:53:39.363Z,101110.64
2018-05-18T01:56:05.146Z,101106.05
2018-05-18T01:58:30.959Z,101119.68
2018-05-18T02:00:56.757Z,101113.34
2018-05-18T02:03:22.565Z,101120.38
2018-05-18T02:05:48.376Z,101124.84
2018-05-18T02:08:14.156Z,101128.89
2018-05-18T02:10:39.952Z,101125.68
2018-05-18T02:13:05.737Z,101127.41
2018-05-18T02:15:31.515Z,101131.23
2018-05-18T02:17:57.309Z,101134.12
2018-05-18T02:20:23.106Z,101130.07
2018-05-18T02:22:48.899Z,101130.84
2018-05-18T02:25:14.703Z,101128.14
2018-05-18T02:27:40.564Z,101127.03
2018-05-18T02:30:06.304Z,101137.19
2018-05-18T02:32:32.097Z,101133.55
2018-05-18T02:34:57.890Z,101127.97
2018-05-18T02:37:23.679Z,101128.21
2018-05-18T02:39:49.493Z,101129.09
2018-05-18T02:42:15.334Z,101128.97
2018-05-18T02:44:41.138Z,101136.28
2018-05-18T02:47:06.949Z,101132.36
2018-05-18T02:49:32.750Z,101130.87
2018-05-18T02:51:58.526Z,101132.23
2018-05-18T02:54:24.307Z,101131.34
2018-05-18T02:56:50.092Z,101130.23
2018-05-18T02:59:15.886Z,101130.70
2018-05-18T03:01:41.678Z,101131.69
2018-05-18T03:04:07.469Z,101126.99
2018-05-18T03:06:33.250Z,101122.44
2018-05-18T03:08:59.040Z,101131.77
2018-05-18T03:11:24.849Z,101131.90
2018-05-18T03:13:50.626Z,101143.60
2018-05-18T03:16:16.438Z,101146.73
2018-05-18T03:18:42.257Z,101148.63
2018-05-18T03:21:08.142Z,101149.59
2018-05-18T03:23:33.833Z,101149.43
2018-05-18T03:25:59.613Z,101156.45
2018-05-18T03:28:25.433Z,101151.62
2018-05-18T03:30:51.210Z,101142.28
2018-05-18T03:33:16.995Z,101154.66
2018-05-18T03:35:42.798Z,101153.95
2018-05-18T03:38:08.584Z,101151.20
2018-05-18T03:40:34.369Z,101158.39
2018-05-18T03:43:00.153Z,101155.65
2018-05-18T03:45:25.925Z,101162.20
2018-05-18T03:47:51.730Z,101164.78
2018-05-18T03:50:17.509Z,101158.89
2018-05-18T03:52:43.292Z,101153.08
2018-05-18T03:55:09.170Z,101150.52
2018-05-18T03:57:34.882Z,101149.28
2018-05-18T04:00:00.696Z,101147.25
2018-05-18T04:05:35.921Z,101152.88
2018-05-18T04:08:14.106Z,101157.17
2018-05-18T04:10:39.918Z,101161.20
2018-05-18T04:13:05.719Z,101159.32
2018-05-18T04:15:31.733Z,101160.64
2018-05-18T04:17:57.524Z,101164.20
2018-05-18T04:20:23.306Z,101161.34
2018-05-18T04:22:49.101Z,101162.06
2018-05-18T04:25:14.886Z,101162.33
2018-05-18T04:27:40.665Z,101167.80
2018-05-18T04:30:06.495Z,101166.43
2018-05-18T04:32:32.265Z,101169.52
2018-05-18T04:34:58.090Z,101172.00
2018-05-18T04:37:23.867Z,101159.97
2018-05-18T04:39:49.648Z,101172.80
2018-05-18T04:42:15.436Z,101163.99
2018-05-18T04:44:41.211Z,101162.39
2018-05-18T04:47:07.033Z,101174.12
2018-05-18T04:49:32.821Z,101177.68
2018-05-18T04:51:58.601Z,101174.11
2018-05-18T04:54:24.386Z,101176.19
2018-05-18T04:56:50.161Z,101172.89
2018-05-18T04:59:15.946Z,101179.81
2018-05-18T05:01:41.750Z,101187.50
2018-05-18T05:04:07.595Z,101182.88
2018-05-18T05:06:33.377Z,101184.56
2018-05-18T05:08:59.189Z,101185.36
2018-05-18T05:11:24.982Z,101178.25
2018-05-18T05:13:50.773Z,101187.11
2018-05-18T05:16:16.584Z,101191.27
2018-05-18T05:18:42.365Z,101188.77
2018-05-18T05:21:08.161Z,101187.52
2018-05-18T05:23:34.254Z,101193.42
2018-05-18T05:26:00.058Z,101202.13
2018-05-18T05:28:25.837Z,101197.19
2018-05-18T05:30:51.641Z,101205.80
2018-05-18T05:33:17.421Z,101212.02
2018-05-18T05:35:43.198Z,101206.84
2018-05-18T05:38:09.000Z,101210.09
2018-05-18T05:40:34.782Z,101213.97
2018-05-18T05:43:00.557Z,101209.32
2018-05-18T05:45:26.365Z,101214.44
2018-05-18T05:47:52.142Z,101213.13
2018-05-18T05:50:17.945Z,101220.22
2018-05-18T05:52:43.791Z,101224.47
2018-05-18T05:55:09.515Z,101222.54
2018-05-18T05:57:35.329Z,101225.73
2018-05-18T06:08:13.512Z,101236.05
2018-05-18T06:10:39.469Z,101234.89
2018-05-18T06:13:05.281Z,101245.88
2018-05-18T06:15:31.073Z,101242.62
2018-05-18T06:17:56.876Z,101246.79
2018-05-18T06:20:22.672Z,101246.20
2018-05-18T06:22:48.480Z,101256.20
2018-05-18T06:25:14.309Z,101252.81
2018-05-18T06:27:40.414Z,101256.63
2018-05-18T06:30:06.228Z,101263.00
2018-05-18T06:32:32.014Z,101258.72
2018-05-18T06:34:57.938Z,101263.31
2018-05-18T06:37:23.635Z,101266.47
2018-05-18T06:39:49.423Z,101261.27
2018-05-18T06:42:15.219Z,101263.64
2018-05-18T06:44:40.998Z,101262.14
2018-05-18T06:47:06.798Z,101264.50
2018-05-18T06:49:32.594Z,101265.29
2018-05-18T06:51:58.394Z,101276.19
2018-05-18T06:54:24.219Z,101269.06
2018-05-18T06:56:50.027Z,101274.84
2018-05-18T06:59:15.810Z,101272.13
2018-05-18T07:01:41.645Z,101278.27
2018-05-18T07:04:07.455Z,101283.45
2018-05-18T07:06:33.267Z,101277.73
2018-05-18T07:08:59.094Z,101279.70
2018-05-18T07:11:24.875Z,101284.16
2018-05-18T07:13:50.666Z,101278.61
2018-05-18T07:16:16.488Z,101286.68
2018-05-18T07:18:42.274Z,101291.48
2018-05-18T07:21:08.114Z,101289.88
2018-05-18T07:23:33.908Z,101290.15
2018-05-18T07:25:59.721Z,101293.11
2018-05-18T07:28:25.524Z,101292.66
2018-05-18T07:30:51.321Z,101296.31
2018-05-18T07:33:17.135Z,101284.98
2018-05-18T07:35:42.966Z,101292.26
2018-05-18T07:38:08.766Z,101297.73
2018-05-18T07:40:34.587Z,101299.39
2018-05-18T07:43:00.509Z,101296.06
2018-05-18T07:45:26.302Z,101290.56
2018-05-18T07:47:52.078Z,101292.44
2018-05-18T07:50:17.914Z,101296.81
2018-05-18T07:52:43.710Z,101294.41
2018-05-18T07:55:09.502Z,101296.78
2018-05-18T07:57:35.331Z,101309.11
2018-05-18T08:00:01.137Z,101293.95
2018-05-18T08:02:26.926Z,101305.34
2018-05-18T08:04:52.708Z,101304.20
2018-05-18T08:07:18.521Z,101305.83
2018-05-18T08:09:44.314Z,101306.09
2018-05-18T08:12:10.092Z,101304.45
2018-05-18T08:14:35.882Z,101304.97
2018-05-18T08:17:01.678Z,101307.09
2018-05-18T08:19:27.494Z,101313.33
2018-05-18T08:21:53.273Z,101319.11
2018-05-18T08:24:19.062Z,101321.91
2018-05-18T08:26:57.247Z,101330.55
2018-05-18T08:29:34.317Z,101329.04
2018-05-18T08:32:00.153Z,101329.52
2018-05-18T08:34:25.941Z,101328.28
2018-05-18T08:36:51.733Z,101327.98
2018-05-18T08:39:17.526Z,101336.70
2018-05-18T08:41:43.321Z,101331.06
2018-05-18T08:44:16.210Z,101339.93
2018-05-18T08:46:42.266Z,101331.45
2018-05-18T08:49:08.066Z,101337.75
2018-05-18T08:51:33.865Z,101336.55
2018-05-18T08:53:59.667Z,101341.87
2018-05-18T08:56:25.469Z,101328.36
2018-05-18T08:58:51.270Z,101330.19
2018-05-18T09:01:17.097Z,101331.57
2018-05-18T09:03:43.300Z,101340.94
2018-05-18T09:06:09.105Z,101336.20
2018-05-18T09:08:34.893Z,101341.02
2018-05-18T09:11:00.704Z,101343.06
2018-05-18T09:13:26.490Z,101351.34
2018-05-18T09:15:52.283Z,101345.21
2018-05-18T09:18:18.103Z,101350.27
2018-05-18T09:20:43.895Z,101355.67
2018-05-18T09:23:09.953Z,101350.65
2018-05-18T09:25:35.759Z,101361.36
2018-05-18T09:28:01.561Z,101353.01
2018-05-18T09:30:27.365Z,101359.82
2018-05-18T09:32:53.154Z,101361.45
2018-05-18T09:35:18.946Z,101359.41
2018-05-18T09:37:44.742Z,101363.83
2018-05-18T09:40:10.548Z,101359.58
2018-05-18T09:42:36.326Z,101363.20
2018-05-18T09:45:02.253Z,101366.51
2018-05-18T09:47:27.954Z,101362.29
2018-05-18T09:49:53.766Z,101371.44
2018-05-18T09:52:19.576Z,101369.85
2018-05-18T09:54:45.433Z,101368.44
2018-05-18T09:57:11.167Z,101361.35
2018-05-18T10:02:02.839Z,101359.22
2018-05-18T10:04:28.626Z,101364.15
2018-05-18T10:06:54.791Z,101366.23
2018-05-18T10:09:20.598Z,101365.68
2018-05-18T10:11:46.389Z,101372.05
2018-05-18T10:14:12.193Z,101368.28
2018-05-18T10:16:37.981Z,101381.52
2018-05-18T10:19:03.772Z,101378.84
2018-05-18T10:21:29.565Z,101375.52
2018-05-18T10:23:55.351Z,101388.23
2018-05-18T10:26:21.171Z,101387.88
2018-05-18T10:28:46.967Z,101382.25
2018-05-18T10:31:12.761Z,101388.63
2018-05-18T10:33:38.574Z,101388.32
2018-05-18T10:36:04.374Z,101387.80
2018-05-18T10:38:30.157Z,101384.11
2018-05-18T10:40:55.961Z,101397.19
2018-05-18T10:43:21.745Z,101390.70
2018-05-18T10:45:47.818Z,101395.05
2018-05-18T10:48:13.612Z,101401.80
2018-05-18T10:50:39.406Z,101390.36
2018-05-18T10:53:05.316Z,101400.31
2018-05-18T10:55:31.113Z,101403.50
2018-05-18T10:57:56.907Z,101403.84
2018-05-18T11:00:22.717Z,101401.61
2018-05-18T11:02:48.501Z,101403.68
2018-05-18T11:05:14.283Z,101399.16
2018-05-18T11:07:40.226Z,101411.81
2018-05-18T11:10:06.010Z,101407.89
2018-05-18T11:12:31.801Z,101409.69
2018-05-18T11:14:57.598Z,101402.86
2018-05-18T11:17:23.384Z,101410.67
2018-05-18T11:19:49.187Z,101407.92
2018-05-18T11:22:14.965Z,101410.45
2018-05-18T11:24:40.778Z,101414.94
2018-05-18T11:27:06.549Z,101405.38
2018-05-18T11:29:32.333Z,101405.58
2018-05-18T11:31:58.129Z,101397.38
2018-05-18T11:34:24.250Z,101401.31
2018-05-18T11:36:50.050Z,101411.70
2018-05-18T11:39:15.880Z,101405.11
2018-05-18T11:41:41.698Z,101404.48
2018-05-18T11:44:07.508Z,101405.05
2018-05-18T11:46:33.320Z,101409.64
2018-05-18T11:48:59.142Z,101402.02
2018-05-18T11:51:24.940Z,101407.81
2018-05-18T11:53:50.725Z,101410.41
2018-05-18T11:56:16.524Z,101409.19
2018-05-18T11:58:42.325Z,101410.17
2018-05-18T12:01:08.120Z,101412.19
2018-05-18T12:03:33.927Z,101418.73
2018-05-18T12:05:59.709Z,101419.52
2018-05-18T12:08:25.580Z,101416.55
2018-05-18T12:10:51.315Z,101420.64
2018-05-18T12:13:17.090Z,101426.61
2018-05-18T12:15:42.889Z,101417.98
2018-05-18T12:18:08.684Z,101418.18
2018-05-18T12:20:34.486Z,101424.59
2018-05-18T12:23:00.281Z,101418.66
2018-05-18T12:25:26.106Z,101422.95
2018-05-18T12:27:51.941Z,101430.95
2018-05-18T12:30:17.924Z,101427.75
2018-05-18T12:32:44.000Z,101425.25
2018-05-18T12:35:09.809Z,101438.12
2018-05-18T12:37:35.594Z,101427.75
2018-05-18T12:40:01.410Z,101432.64
2018-05-18T12:42:27.213Z,101432.09
2018-05-18T12:44:53.235Z,101434.30
2018-05-18T12:47:19.052Z,101424.91
2018-05-18T12:49:44.843Z,101428.94
2018-05-18T12:52:10.712Z,101426.25
2018-05-18T12:54:36.481Z,101439.09
2018-05-18T12:57:02.317Z,101428.33
2018-05-18T12:59:28.179Z,101435.83
2018-05-18T13:01:53.902Z,101437.83
2018-05-18T13:04:19.737Z,101434.02
2018-05-18T13:06:45.532Z,101438.59
2018-05-18T13:09:11.341Z,101431.31
2018-05-18T13:11:37.161Z,101431.81
2018-05-18T13:14:02.970Z,101436.62
2018-05-18T13:16:28.786Z,101435.75
2018-05-18T13:18:54.598Z,101439.38
2018-05-18T13:21:20.424Z,101432.94
2018-05-18T13:23:46.234Z,101426.84
2018-05-18T13:26:12.078Z,101435.90
2018-05-18T13:28:37.915Z,101438.16
2018-05-18T13:31:03.721Z,101430.23
2018-05-18T13:33:29.510Z,101426.17
2018-05-18T13:35:55.354Z,101433.90
2018-05-18T13:38:21.162Z,101433.27
2018-05-18T13:40:46.962Z,101420.69
2018-05-18T13:43:12.781Z,101426.77
2018-05-18T13:45:38.594Z,101425.47
2018-05-18T13:48:04.412Z,101428.02
2018-05-18T13:50:30.212Z,101426.25
2018-05-18T13:53:02.935Z,101428.20
2018-05-18T13:55:29.094Z,101425.11
2018-05-18T13:57:54.897Z,101427.59
2018-05-18T14:00:20.696Z,101432.20
2018-05-18T14:02:46.514Z,101430.94
2018-05-18T14:05:12.270Z,101421.41
2018-05-18T14:07:38.087Z,101424.35
2018-05-18T14:10:03.879Z,101420.06
2018-05-18T14:12:29.673Z,101417.70
2018-05-18T14:14:55.477Z,101420.39
2018-05-18T14:17:21.265Z,101416.40
2018-05-18T14:19:47.072Z,101420.18
2018-05-18T14:22:12.918Z,101422.42
2018-05-18T14:24:38.710Z,101422.23
2018-05-18T14:27:04.532Z,101418.61
2018-05-18T14:29:30.323Z,101414.63
2018-05-18T14:31:56.232Z,101416.87
2018-05-18T14:34:21.959Z,101417.51
2018-05-18T14:36:47.756Z,101410.22
2018-05-18T14:39:13.590Z,101421.77
2018-05-18T14:41:39.370Z,101418.06
2018-05-18T14:44:05.200Z,101419.44
2018-05-18T14:46:31.260Z,101421.45
2018-05-18T14:48:57.059Z,101419.91
2018-05-18T14:51:22.841Z,101411.67
2018-05-18T14:53:48.769Z,101418.52
2018-05-18T14:56:14.574Z,101415.88
2018-05-18T14:58:40.485Z,101415.50
2018-05-18T15:01:06.178Z,101412.85
2018-05-18T15:03:31.970Z,101404.08
2018-05-18T15:05:57.786Z,101417.94
2018-05-18T15:08:23.604Z,101412.63
2018-05-18T15:10:49.396Z,101416.37
2018-05-18T15:13:15.195Z,101413.09
2018-05-18T15:15:40.997Z,101421.82
2018-05-18T15:18:06.791Z,101410.19
2018-05-18T15:20:32.637Z,101410.77
2018-05-18T15:22:58.414Z,101420.52
2018-05-18T15:25:24.237Z,101412.35
2018-05-18T15:27:50.027Z,101413.10
2018-05-18T15:30:15.805Z,101418.66
2018-05-18T15:32:41.613Z,101424.52
2018-05-18T15:35:07.395Z,101419.09
2018-05-18T15:37:33.231Z,101421.31
2018-05-18T15:39:59.039Z,101422.43
2018-05-18T15:42:24.824Z,101422.74
2018-05-18T15:44:50.909Z,101428.24
2018-05-18T15:47:16.729Z,101430.54
2018-05-18T15:49:42.526Z,101437.44
2018-05-18T15:52:08.343Z,101429.56
2018-05-18T15:54:34.137Z,101442.05
2018-05-18T15:56:59.926Z,101431.49
2018-05-18T15:59:25.822Z,101431.92
2018-05-18T16:01:51.638Z,101433.50
2018-05-18T16:04:17.485Z,101431.81
2018-05-18T16:06:43.262Z,101431.61
2018-05-18T16:09:09.054Z,101432.04
2018-05-18T16:11:34.841Z,101424.59
2018-05-18T16:14:00.631Z,101425.73
2018-05-18T16:16:26.450Z,101428.18
2018-05-18T16:18:52.266Z,101426.61
2018-05-18T16:21:18.083Z,101424.02
2018-05-18T16:23:43.873Z,101433.14
2018-05-18T16:26:09.682Z,101434.69
2018-05-18T16:28:35.465Z,101436.38
2018-05-18T16:31:01.267Z,101417.97
2018-05-18T16:33:28.025Z,101424.91
2018-05-18T16:35:53.920Z,101429.50
2018-05-18T16:38:19.783Z,101432.26
2018-05-18T16:40:45.750Z,101433.55
2018-05-18T16:43:14.345Z,101438.59
2018-05-18T16:45:40.154Z,101436.33
2018-05-18T16:48:06.817Z,101432.12
2018-05-18T16:50:33.529Z,101438.38
2018-05-18T16:53:02.136Z,101433.30
2018-05-18T16:55:29.055Z,101430.05
2018-05-18T16:57:55.823Z,101432.91
2018-05-18T17:00:22.286Z,101437.09
2018-05-18T17:02:49.486Z,101432.79
2018-05-18T17:05:17.408Z,101431.64
2018-05-18T17:07:47.203Z,101434.73
2018-05-18T17:10:14.270Z,101437.44
2018-05-18T17:12:41.077Z,101432.41
2018-05-18T17:15:08.444Z,101435.65
2018-05-18T17:17:37.339Z,101442.66
2018-05-18T17:20:04.409Z,101434.61
2018-05-18T17:22:31.329Z,101444.34
2018-05-18T17:24:58.105Z,101444.23
2018-05-18T17:27:27.286Z,101437.80
2018-05-18T17:29:53.923Z,101442.98
2018-05-18T17:32:20.081Z,101437.23
2018-05-18T17:34:46.558Z,101443.33
2018-05-18T17:37:12.785Z,101444.47
2018-05-18T17:39:39.025Z,101442.36
2018-05-18T17:42:04.838Z,101438.37
2018-05-18T17:44:31.134Z,101439.80
2018-05-18T17:46:56.957Z,101446.34
2018-05-18T17:49:23.163Z,101449.44
2018-05-18T17:51:49.051Z,101446.28
2018-05-18T17:54:15.039Z,101449.92
2018-05-18T17:56:40.863Z,101448.30
2018-05-18T17:59:06.675Z,101453.02
2018-05-18T18:01:32.527Z,101446.82
2018-05-18T18:03:58.282Z,101446.92
2018-05-18T18:06:24.509Z,101448.39
2018-05-18T18:08:50.310Z,101449.38
2018-05-18T18:11:16.373Z,101447.32
2018-05-18T18:13:42.190Z,101442.86
2018-05-18T18:16:07.989Z,101451.31
2018-05-18T18:18:33.832Z,101447.48
2018-05-18T18:20:59.632Z,101449.17
2018-05-18T18:23:25.418Z,101447.87
2018-05-18T18:25:51.239Z,101455.94
2018-05-18T18:28:17.025Z,101449.73
2018-05-18T18:30:42.828Z,101454.99
2018-05-18T18:33:08.638Z,101455.06
2018-05-18T18:35:34.446Z,101456.39
2018-05-18T18:38:00.693Z,101463.39
2018-05-18T18:40:26.525Z,101463.09
2018-05-18T18:42:52.852Z,101464.48
2018-05-18T18:45:19.024Z,101466.82
2018-05-18T18:47:45.073Z,101465.20
2018-05-18T18:50:10.914Z,101463.85
2018-05-18T18:52:36.709Z,101471.75
2018-05-18T18:55:02.562Z,101477.34
2018-05-18T18:57:28.370Z,101482.16
2018-05-18T18:59:54.166Z,101483.88
2018-05-18T19:02:19.965Z,101485.01
2018-05-18T19:04:45.981Z,101486.45
2018-05-18T19:07:11.793Z,101481.45
2018-05-18T19:09:37.629Z,101483.84
2018-05-18T19:12:03.447Z,101490.48
2018-05-18T19:14:29.409Z,101489.10
2018-05-18T19:16:55.219Z,101495.87
2018-05-18T19:19:21.598Z,101499.05
2018-05-18T19:21:48.478Z,101499.73
2018-05-18T19:24:14.458Z,101503.55
2018-05-18T19:26:40.243Z,101503.23
2018-05-18T19:29:06.175Z,101500.02
2018-05-18T19:31:32.002Z,101509.73
2018-05-18T19:33:58.017Z,101506.89
2018-05-18T19:36:23.842Z,101512.52
2018-05-18T19:38:49.640Z,101503.77
2018-05-18T19:41:15.422Z,101500.30
2018-05-18T19:43:41.252Z,101502.59
2018-05-18T19:46:07.476Z,101503.03
2018-05-18T19:48:33.270Z,101508.50
2018-05-18T19:50:59.046Z,101510.76
2018-05-18T19:53:24.874Z,101507.77
2018-05-18T19:55:50.676Z,101512.58
2018-05-18T19:58:16.862Z,101522.09
2018-05-18T20:03:15.323Z,101510.46
2018-05-18T20:05:41.491Z,101515.14
2018-05-18T20:08:07.395Z,101514.01
2018-05-18T20:10:33.382Z,101519.13
2018-05-18T20:12:59.174Z,101522.30
2018-05-18T20:15:25.115Z,101511.98
2018-05-18T20:17:50.904Z,101509.58
2018-05-18T20:20:16.686Z,101506.45
2018-05-18T20:22:42.605Z,101502.42
2018-05-18T20:25:08.481Z,101505.11
2018-05-18T20:27:34.590Z,101506.20
2018-05-18T20:30:00.400Z,101509.72
2018-05-18T20:32:26.334Z,101513.05
2018-05-18T20:34:52.158Z,101508.80
2018-05-18T20:37:18.053Z,101509.19
2018-05-18T20:39:43.879Z,101511.36
2018-05-18T20:42:09.877Z,101515.66
2018-05-18T20:44:35.669Z,101516.88
2018-05-18T20:47:01.502Z,101519.00
2018-05-18T20:49:27.310Z,101525.41
2018-05-18T20:51:53.112Z,101525.95
2018-05-18T20:54:19.355Z,101519.30
2018-05-18T20:56:45.149Z,101513.70
2018-05-18T20:59:11.218Z,101516.61
2018-05-18T21:01:37.050Z,101515.30
2018-05-18T21:04:02.946Z,101511.05
2018-05-18T21:06:28.772Z,101510.10
2018-05-18T21:08:54.581Z,101514.13
2018-05-18T21:11:20.529Z,101508.75
2018-05-18T21:13:46.332Z,101510.23
2018-05-18T21:16:12.151Z,101508.19
2018-05-18T21:18:37.990Z,101510.66
2018-05-18T21:21:03.782Z,101511.70
2018-05-18T21:23:29.601Z,101512.01
2018-05-18T21:25:55.400Z,101510.03
2018-05-18T21:28:21.270Z,101514.75
2018-05-18T21:30:48.154Z,101516.35
2018-05-18T21:33:13.952Z,101520.19
2018-05-18T21:35:39.737Z,101519.61
2018-05-18T21:38:05.973Z,101515.74
2018-05-18T21:40:31.777Z,101514.44
2018-05-18T21:42:57.823Z,101522.25
2018-05-18T21:45:23.562Z,101517.09
2018-05-18T21:47:49.369Z,101521.44
2018-05-18T21:50:15.157Z,101518.73
2018-05-18T21:52:42.057Z,101519.86
2018-05-18T21:55:07.916Z,101524.42
2018-05-18T21:57:33.740Z,101525.95
2018-05-18T21:59:59.724Z,101521.59
2018-05-18T22:02:25.513Z,101518.95
2018-05-18T22:04:51.320Z,101523.89
2018-05-18T22:07:17.131Z,101521.16
2018-05-18T22:09:42.914Z,101524.94
2018-05-18T22:12:09.278Z,101531.56
2018-05-18T22:14:35.057Z,101520.63
2018-05-18T22:17:01.009Z,101528.10
2018-05-18T22:19:26.853Z,101520.81
2018-05-18T22:21:52.705Z,101520.42
2018-05-18T22:24:18.550Z,101514.22
2018-05-18T22:26:44.335Z,101515.13
2018-05-18T22:29:10.134Z,101516.81
2018-05-18T22:31:35.930Z,101520.42
2018-05-18T22:34:01.900Z,101508.95
2018-05-18T22:36:27.746Z,101525.14
2018-05-18T22:38:53.678Z,101524.65
2018-05-18T22:41:19.485Z,101524.77
2018-05-18T22:43:45.275Z,101511.45
2018-05-18T22:46:11.057Z,101521.80
2018-05-18T22:48:36.860Z,101516.09
2018-05-18T22:51:02.661Z,101518.18
2018-05-18T22:53:28.467Z,101517.97
2018-05-18T22:55:54.274Z,101513.81
2018-05-18T22:58:20.072Z,101511.83
2018-05-18T23:00:45.859Z,101512.92
2018-05-18T23:03:11.835Z,101514.81
2018-05-18T23:05:37.623Z,101516.92
2018-05-18T23:08:03.404Z,101520.36
2018-05-18T23:10:29.201Z,101513.77
2018-05-18T23:12:54.997Z,101511.63
2018-05-18T23:15:20.790Z,101505.89
2018-05-18T23:17:46.590Z,101509.77
2018-05-18T23:20:12.380Z,101507.85
2018-05-18T23:22:38.171Z,101502.77
2018-05-18T23:25:03.970Z,101498.69
2018-05-18T23:27:29.775Z,101504.70
2018-05-18T23:29:55.607Z,101511.45
2018-05-18T23:32:21.388Z,101518.45
2018-05-18T23:34:47.189Z,101513.66
2018-05-18T23:37:12.982Z,101515.54
2018-05-18T23:39:38.764Z,101515.91
2018-05-18T23:42:04.563Z,101514.53
2018-05-18T23:44:30.359Z,101511.13
2018-05-18T23:46:56.142Z,101512.63
2018-05-18T23:49:21.949Z,101509.27
2018-05-18T23:51:47.741Z,101513.45
2018-05-18T23:54:13.524Z,101524.95
2018-05-18T23:56:39.340Z,101516.95
2018-05-18T23:59:05.117Z,101521.73
